sensor_id;sensor_type;location;lat;lon;timestamp;temperature;humidity
30300;DHT22;17110;52.602;12.998;2024-03-23T00:58:05;8.00;99.90
30300;DHT22;17110;52.602;12.998;2024-03-23T01:03:06;8.00;99.90
30300;DHT22;17110;52.602;12.998;2024-03-23T01:08:08;8.00;99.90
30300;DHT22;17110;52.602;12.998;2024-03-23T01:13:08;8.00;99.90
30300;DHT22;17110;52.602;12.998;2024-03-23T01:18:09;7.90;99.90
30300;DHT22;17110;52.602;12.998;2024-03-23T01:23:11;7.90;99.90
30300;DHT22;17110;52.602;12.998;2024-03-23T01:28:12;7.90;99.90
30300;DHT22;17110;52.602;12.998;2024-03-23T01:33:13;7.90;99.90
30300;DHT22;17110;52.602;12.998;2024-03-23T01:38:15;7.90;99.90
30300;DHT22;17110;52.602;12.998;2024-03-23T01:43:15;7.90;99.90
30300;DHT22;17110;52.602;12.998;2024-03-23T01:48:16;8.00;99.90
30300;DHT22;17110;52.602;12.998;2024-03-23T01:53:18;8.00;99.90
30300;DHT22;17110;52.602;12.998;2024-03-23T01:58:19;7.90;99.90
30300;DHT22;17110;52.602;12.998;2024-03-23T02:03:23;7.90;99.90
30300;DHT22;17110;52.602;12.998;2024-03-23T02:08:25;7.90;99.90
30300;DHT22;17110;52.602;12.998;2024-03-23T02:13:28;7.90;99.90
30300;DHT22;17110;52.602;12.998;2024-03-23T02:18:29;7.90;99.90
30300;DHT22;17110;52.602;12.998;2024-03-23T02:23:31;7.90;99.90
30300;DHT22;17110;52.602;12.998;2024-03-23T02:28:32;7.80;99.90
30300;DHT22;17110;52.602;12.998;2024-03-23T02:33:33;7.80;99.90
30300;DHT22;17110;52.602;12.998;2024-03-23T02:38:35;7.80;99.90
30300;DHT22;17110;52.602;12.998;2024-03-23T02:43:35;7.80;99.90
30300;DHT22;17110;52.602;12.998;2024-03-23T02:48:36;7.80;99.90
30300;DHT22;17110;52.602;12.998;2024-03-23T02:53:38;7.70;99.90
30300;DHT22;17110;52.602;12.998;2024-03-23T02:58:38;7.70;99.90
30300;DHT22;17110;52.602;12.998;2024-03-23T03:03:39;7.70;99.90
30300;DHT22;17110;52.602;12.998;2024-03-23T03:08:41;7.70;99.90
30300;DHT22;17110;52.602;12.998;2024-03-23T03:13:42;7.70;99.90
30300;DHT22;17110;52.602;12.998;2024-03-23T03:18:43;7.70;99.90
30300;DHT22;17110;52.602;12.998;2024-03-23T03:23:45;7.70;99.90
30300;DHT22;17110;52.602;12.998;2024-03-23T03:28:46;7.70;99.90
30300;DHT22;17110;52.602;12.998;2024-03-23T03:33:46;7.60;99.90
30300;DHT22;17110;52.602;12.998;2024-03-23T03:38:48;7.60;99.90
30300;DHT22;17110;52.602;12.998;2024-03-23T03:43:49;7.60;99.90
30300;DHT22;17110;52.602;12.998;2024-03-23T03:48:50;7.50;99.90
30300;DHT22;17110;52.602;12.998;2024-03-23T03:53:52;7.50;99.90
30300;DHT22;17110;52.602;12.998;2024-03-23T03:58:52;7.50;99.90
30300;DHT22;17110;52.602;12.998;2024-03-23T04:03:53;7.40;99.90
30300;DHT22;17110;52.602;12.998;2024-03-23T04:08:55;7.40;99.90
30300;DHT22;17110;52.602;12.998;2024-03-23T04:13:56;7.30;99.90
30300;DHT22;17110;52.602;12.998;2024-03-23T04:18:56;7.30;99.90
30300;DHT22;17110;52.602;12.998;2024-03-23T04:23:58;7.30;99.90
30300;DHT22;17110;52.602;12.998;2024-03-23T04:28:59;7.20;99.90
30300;DHT22;17110;52.602;12.998;2024-03-23T04:34:00;7.20;99.90
30300;DHT22;17110;52.602;12.998;2024-03-23T04:39:02;7.20;99.90
30300;DHT22;17110;52.602;12.998;2024-03-23T04:44:03;7.10;99.90
30300;DHT22;17110;52.602;12.998;2024-03-23T04:49:04;7.00;99.90
30300;DHT22;17110;52.602;12.998;2024-03-23T04:54:06;7.10;99.90
30300;DHT22;17110;52.602;12.998;2024-03-23T04:59:06;7.00;99.90
30300;DHT22;17110;52.602;12.998;2024-03-23T05:04:08;7.00;99.90
30300;DHT22;17110;52.602;12.998;2024-03-23T05:09:10;7.00;99.90
30300;DHT22;17110;52.602;12.998;2024-03-23T05:14:11;6.90;99.90
30300;DHT22;17110;52.602;12.998;2024-03-23T05:19:12;6.80;99.90
30300;DHT22;17110;52.602;12.998;2024-03-23T05:24:14;6.80;99.90
30300;DHT22;17110;52.602;12.998;2024-03-23T05:29:15;6.80;99.90
30300;DHT22;17110;52.602;12.998;2024-03-23T05:34:16;6.80;99.90
30300;DHT22;17110;52.602;12.998;2024-03-23T05:39:18;6.80;99.90
30300;DHT22;17110;52.602;12.998;2024-03-23T05:44:18;6.80;99.90
30300;DHT22;17110;52.602;12.998;2024-03-23T05:49:19;6.90;99.90
30300;DHT22;17110;52.602;12.998;2024-03-23T05:54:21;6.80;99.90
30300;DHT22;17110;52.602;12.998;2024-03-23T05:59:22;6.80;99.90
30300;DHT22;17110;52.602;12.998;2024-03-23T06:04:22;6.80;99.90
30300;DHT22;17110;52.602;12.998;2024-03-23T06:09:24;6.80;99.90
30300;DHT22;17110;52.602;12.998;2024-03-23T06:14:25;6.90;99.90
30300;DHT22;17110;52.602;12.998;2024-03-23T06:19:26;6.90;99.90
30300;DHT22;17110;52.602;12.998;2024-03-23T06:24:28;6.90;99.90
30300;DHT22;17110;52.602;12.998;2024-03-23T06:29:29;7.00;99.90
30300;DHT22;17110;52.602;12.998;2024-03-23T06:34:30;7.00;99.90
30300;DHT22;17110;52.602;12.998;2024-03-23T06:39:32;7.10;99.90
30300;DHT22;17110;52.602;12.998;2024-03-23T06:44:33;7.20;99.90
30300;DHT22;17110;52.602;12.998;2024-03-23T06:49:33;7.20;99.90
30300;DHT22;17110;52.602;12.998;2024-03-23T06:54:35;7.10;99.90
30300;DHT22;17110;52.602;12.998;2024-03-23T06:59:36;6.90;99.90
30300;DHT22;17110;52.602;12.998;2024-03-23T07:04:36;6.70;99.90
30300;DHT22;17110;52.602;12.998;2024-03-23T07:09:39;6.60;99.90
30300;DHT22;17110;52.602;12.998;2024-03-23T07:14:39;6.60;99.90
30300;DHT22;17110;52.602;12.998;2024-03-23T07:19:40;6.60;99.90
30300;DHT22;17110;52.602;12.998;2024-03-23T07:24:43;6.50;99.90
30300;DHT22;17110;52.602;12.998;2024-03-23T07:29:45;6.40;99.90
30300;DHT22;17110;52.602;12.998;2024-03-23T07:34:46;6.40;99.90
30300;DHT22;17110;52.602;12.998;2024-03-23T07:39:48;6.30;99.90
30300;DHT22;17110;52.602;12.998;2024-03-23T07:44:49;6.20;99.90
30300;DHT22;17110;52.602;12.998;2024-03-23T07:49:49;6.20;99.90
30300;DHT22;17110;52.602;12.998;2024-03-23T07:54:51;6.20;99.90
30300;DHT22;17110;52.602;12.998;2024-03-23T07:59:52;6.30;99.90
30300;DHT22;17110;52.602;12.998;2024-03-23T08:04:53;6.10;99.90
30300;DHT22;17110;52.602;12.998;2024-03-23T08:09:55;6.10;99.90
30300;DHT22;17110;52.602;12.998;2024-03-23T08:14:55;6.00;99.90
30300;DHT22;17110;52.602;12.998;2024-03-23T08:19:56;5.90;99.90
30300;DHT22;17110;52.602;12.998;2024-03-23T08:24:58;5.90;99.90
30300;DHT22;17110;52.602;12.998;2024-03-23T08:29:58;5.90;99.90
30300;DHT22;17110;52.602;12.998;2024-03-23T08:34:59;5.90;99.90
30300;DHT22;17110;52.602;12.998;2024-03-23T08:40:01;6.00;99.90
30300;DHT22;17110;52.602;12.998;2024-03-23T08:45:03;6.00;99.90
30300;DHT22;17110;52.602;12.998;2024-03-23T08:50:04;6.00;99.90
30300;DHT22;17110;52.602;12.998;2024-03-23T08:55:07;6.00;99.90
30300;DHT22;17110;52.602;12.998;2024-03-23T09:00:09;6.00;99.90
30300;DHT22;17110;52.602;12.998;2024-03-23T09:05:10;6.10;99.90
30300;DHT22;17110;52.602;12.998;2024-03-23T09:10:12;6.10;99.90
30300;DHT22;17110;52.602;12.998;2024-03-23T09:15:13;6.10;99.90
30300;DHT22;17110;52.602;12.998;2024-03-23T09:20:14;6.20;99.90
30300;DHT22;17110;52.602;12.998;2024-03-23T09:25:16;6.20;99.90
30300;DHT22;17110;52.602;12.998;2024-03-23T09:30:17;6.30;99.90
30300;DHT22;17110;52.602;12.998;2024-03-23T09:35:17;6.50;99.90
30300;DHT22;17110;52.602;12.998;2024-03-23T09:40:20;6.50;99.90
30300;DHT22;17110;52.602;12.998;2024-03-23T09:45:22;6.80;99.90
30300;DHT22;17110;52.602;12.998;2024-03-23T09:50:22;6.80;99.90
30300;DHT22;17110;52.602;12.998;2024-03-23T09:55:24;7.00;99.90
30300;DHT22;17110;52.602;12.998;2024-03-23T10:00:25;7.10;99.90
30300;DHT22;17110;52.602;12.998;2024-03-23T10:05:26;7.20;99.90
30300;DHT22;17110;52.602;12.998;2024-03-23T10:10:28;7.10;99.90
30300;DHT22;17110;52.602;12.998;2024-03-23T10:15:29;7.00;99.90
30300;DHT22;17110;52.602;12.998;2024-03-23T10:20:29;7.10;99.90
30300;DHT22;17110;52.602;12.998;2024-03-23T10:25:31;7.20;99.90
30300;DHT22;17110;52.602;12.998;2024-03-23T10:30:32;7.40;99.90
30300;DHT22;17110;52.602;12.998;2024-03-23T10:35:33;7.50;99.90
30300;DHT22;17110;52.602;12.998;2024-03-23T10:40:35;7.60;99.90
30300;DHT22;17110;52.602;12.998;2024-03-23T10:45:36;7.70;99.90
30300;DHT22;17110;52.602;12.998;2024-03-23T10:50:37;7.60;99.90
30300;DHT22;17110;52.602;12.998;2024-03-23T10:55:40;7.70;99.90
30300;DHT22;17110;52.602;12.998;2024-03-23T11:00:41;7.70;99.90
30300;DHT22;17110;52.602;12.998;2024-03-23T11:05:46;7.60;99.90
30300;DHT22;17110;52.602;12.998;2024-03-23T11:10:49;7.80;99.90
30300;DHT22;17110;52.602;12.998;2024-03-23T11:15:50;7.80;99.90
30300;DHT22;17110;52.602;12.998;2024-03-23T11:20:50;8.00;99.90
30300;DHT22;17110;52.602;12.998;2024-03-23T11:25:52;8.00;99.90
30300;DHT22;17110;52.602;12.998;2024-03-23T11:30:53;8.10;99.90
30300;DHT22;17110;52.602;12.998;2024-03-23T11:35:53;8.10;99.90
30300;DHT22;17110;52.602;12.998;2024-03-23T11:40:55;7.90;99.90
30300;DHT22;17110;52.602;12.998;2024-03-23T11:45:56;7.70;99.90
30300;DHT22;17110;52.602;12.998;2024-03-23T11:50:57;7.60;99.90
30300;DHT22;17110;52.602;12.998;2024-03-23T11:56:00;7.50;99.90
30300;DHT22;17110;52.602;12.998;2024-03-23T12:01:01;7.50;99.90
30300;DHT22;17110;52.602;12.998;2024-03-23T12:06:04;7.50;99.90
30300;DHT22;17110;52.602;12.998;2024-03-23T12:11:08;7.60;99.90
30300;DHT22;17110;52.602;12.998;2024-03-23T12:16:09;7.60;99.90
30300;DHT22;17110;52.602;12.998;2024-03-23T12:21:11;7.60;99.90
30300;DHT22;17110;52.602;12.998;2024-03-23T12:26:13;7.90;99.90
30300;DHT22;17110;52.602;12.998;2024-03-23T12:31:13;8.00;99.90
30300;DHT22;17110;52.602;12.998;2024-03-23T12:36:14;8.20;99.90
30300;DHT22;17110;52.602;12.998;2024-03-23T12:41:16;8.50;99.90
30300;DHT22;17110;52.602;12.998;2024-03-23T12:46:17;8.40;99.90
30300;DHT22;17110;52.602;12.998;2024-03-23T12:51:17;8.30;99.90
30300;DHT22;17110;52.602;12.998;2024-03-23T12:56:19;8.60;99.90
30300;DHT22;17110;52.602;12.998;2024-03-23T13:01:20;8.60;99.90
30300;DHT22;17110;52.602;12.998;2024-03-23T13:06:21;8.80;99.90
30300;DHT22;17110;52.602;12.998;2024-03-23T13:11:23;9.10;99.90
30300;DHT22;17110;52.602;12.998;2024-03-23T13:16:24;9.40;99.90
30300;DHT22;17110;52.602;12.998;2024-03-23T13:21:24;9.20;99.90
30300;DHT22;17110;52.602;12.998;2024-03-23T13:26:26;9.30;99.90
30300;DHT22;17110;52.602;12.998;2024-03-23T13:31:27;9.80;99.90
30300;DHT22;17110;52.602;12.998;2024-03-23T13:36:27;9.80;99.90
30300;DHT22;17110;52.602;12.998;2024-03-23T13:41:29;9.60;99.90
30300;DHT22;17110;52.602;12.998;2024-03-23T13:46:30;9.60;99.90
30300;DHT22;17110;52.602;12.998;2024-03-23T13:51:31;9.40;99.90
30300;DHT22;17110;52.602;12.998;2024-03-23T13:56:33;9.10;99.90
30300;DHT22;17110;52.602;12.998;2024-03-23T14:01:34;8.90;99.90
30300;DHT22;17110;52.602;12.998;2024-03-23T14:06:34;8.70;99.90
30300;DHT22;17110;52.602;12.998;2024-03-23T14:11:36;8.50;99.90
30300;DHT22;17110;52.602;12.998;2024-03-23T14:16:37;8.30;99.90
30300;DHT22;17110;52.602;12.998;2024-03-23T14:21:38;8.20;99.90
30300;DHT22;17110;52.602;12.998;2024-03-23T14:26:40;8.10;99.90
30300;DHT22;17110;52.602;12.998;2024-03-23T14:31:40;7.90;99.90
30300;DHT22;17110;52.602;12.998;2024-03-23T14:36:41;7.90;99.90
30300;DHT22;17110;52.602;12.998;2024-03-23T14:41:43;8.50;99.90
30300;DHT22;17110;52.602;12.998;2024-03-23T14:46:43;9.00;99.90
30300;DHT22;17110;52.602;12.998;2024-03-23T14:51:44;9.20;99.90
30300;DHT22;17110;52.602;12.998;2024-03-23T14:56:46;9.20;99.90
30300;DHT22;17110;52.602;12.998;2024-03-23T15:01:47;9.00;99.90
30300;DHT22;17110;52.602;12.998;2024-03-23T15:06:47;8.80;99.90
30300;DHT22;17110;52.602;12.998;2024-03-23T15:11:49;8.60;99.90
30300;DHT22;17110;52.602;12.998;2024-03-23T15:16:50;8.60;99.90
30300;DHT22;17110;52.602;12.998;2024-03-23T15:21:51;8.80;99.90
30300;DHT22;17110;52.602;12.998;2024-03-23T15:26:53;8.90;99.90
30300;DHT22;17110;52.602;12.998;2024-03-23T15:31:53;9.10;99.90
30300;DHT22;17110;52.602;12.998;2024-03-23T15:36:54;9.10;99.90
30300;DHT22;17110;52.602;12.998;2024-03-23T15:41:56;9.10;99.90
30300;DHT22;17110;52.602;12.998;2024-03-23T15:46:56;9.10;99.90
30300;DHT22;17110;52.602;12.998;2024-03-23T15:51:57;9.00;99.90
30300;DHT22;17110;52.602;12.998;2024-03-23T15:56:59;9.00;99.90
30300;DHT22;17110;52.602;12.998;2024-03-23T16:02:00;8.90;99.90
30300;DHT22;17110;52.602;12.998;2024-03-23T16:07:00;8.70;99.90
30300;DHT22;17110;52.602;12.998;2024-03-23T16:12:03;8.50;99.90
30300;DHT22;17110;52.602;12.998;2024-03-23T16:17:03;8.30;99.90
30300;DHT22;17110;52.602;12.998;2024-03-23T16:22:04;8.20;99.90
30300;DHT22;17110;52.602;12.998;2024-03-23T16:27:06;8.20;99.90
30300;DHT22;17110;52.602;12.998;2024-03-23T16:32:07;8.20;99.90
30300;DHT22;17110;52.602;12.998;2024-03-23T16:37:07;8.10;99.90
30300;DHT22;17110;52.602;12.998;2024-03-23T16:42:09;8.00;99.90
30300;DHT22;17110;52.602;12.998;2024-03-23T16:47:10;7.90;99.90
30300;DHT22;17110;52.602;12.998;2024-03-23T16:52:10;7.80;99.90
30300;DHT22;17110;52.602;12.998;2024-03-23T16:57:12;7.70;99.90
30300;DHT22;17110;52.602;12.998;2024-03-23T17:02:13;7.60;99.90
30300;DHT22;17110;52.602;12.998;2024-03-23T17:07:14;7.50;99.90
30300;DHT22;17110;52.602;12.998;2024-03-23T17:12:16;7.30;99.90
30300;DHT22;17110;52.602;12.998;2024-03-23T17:17:16;7.20;99.90
30300;DHT22;17110;52.602;12.998;2024-03-23T17:22:17;7.10;99.90
30300;DHT22;17110;52.602;12.998;2024-03-23T17:27:19;7.00;99.90
30300;DHT22;17110;52.602;12.998;2024-03-23T17:32:19;6.90;99.90
30300;DHT22;17110;52.602;12.998;2024-03-23T17:37:20;6.80;99.90
30300;DHT22;17110;52.602;12.998;2024-03-23T17:42:22;6.80;99.90
30300;DHT22;17110;52.602;12.998;2024-03-23T17:47:23;7.00;99.90
30300;DHT22;17110;52.602;12.998;2024-03-23T17:57:28;6.70;99.90
30300;DHT22;17110;52.602;12.998;2024-03-23T18:02:29;6.40;99.90
30300;DHT22;17110;52.602;12.998;2024-03-23T18:07:29;6.10;99.90
30300;DHT22;17110;52.602;12.998;2024-03-23T18:12:31;6.00;99.90
30300;DHT22;17110;52.602;12.998;2024-03-23T18:17:32;5.80;99.90
30300;DHT22;17110;52.602;12.998;2024-03-23T18:22:32;5.80;99.90
30300;DHT22;17110;52.602;12.998;2024-03-23T18:27:34;5.70;99.90
30300;DHT22;17110;52.602;12.998;2024-03-23T18:32:35;5.60;99.90
30300;DHT22;17110;52.602;12.998;2024-03-23T18:37:36;5.60;99.90
30300;DHT22;17110;52.602;12.998;2024-03-23T18:42:38;5.50;99.90
30300;DHT22;17110;52.602;12.998;2024-03-23T18:47:38;5.40;99.90
30300;DHT22;17110;52.602;12.998;2024-03-23T18:52:39;5.40;99.90
30300;DHT22;17110;52.602;12.998;2024-03-23T18:57:41;5.30;99.90
30300;DHT22;17110;52.602;12.998;2024-03-23T19:02:41;5.30;99.90
30300;DHT22;17110;52.602;12.998;2024-03-23T19:07:42;5.30;99.90
30300;DHT22;17110;52.602;12.998;2024-03-23T19:12:45;5.20;99.90
30300;DHT22;17110;52.602;12.998;2024-03-23T19:17:46;5.20;99.90
30300;DHT22;17110;52.602;12.998;2024-03-23T19:22:46;5.20;99.90
30300;DHT22;17110;52.602;12.998;2024-03-23T19:27:48;5.20;99.90
30300;DHT22;17110;52.602;12.998;2024-03-23T19:32:49;5.20;99.90
30300;DHT22;17110;52.602;12.998;2024-03-23T19:37:49;5.20;99.90
30300;DHT22;17110;52.602;12.998;2024-03-23T19:42:51;5.20;99.90
30300;DHT22;17110;52.602;12.998;2024-03-23T19:47:52;5.20;99.90
30300;DHT22;17110;52.602;12.998;2024-03-23T19:52:52;5.20;99.90
30300;DHT22;17110;52.602;12.998;2024-03-23T19:57:54;5.00;99.90
30300;DHT22;17110;52.602;12.998;2024-03-23T20:02:55;4.80;99.90
30300;DHT22;17110;52.602;12.998;2024-03-23T20:07:56;4.70;99.90
30300;DHT22;17110;52.602;12.998;2024-03-23T20:12:58;4.60;99.90
30300;DHT22;17110;52.602;12.998;2024-03-23T20:17:58;4.40;99.90
30300;DHT22;17110;52.602;12.998;2024-03-23T20:22:59;4.40;99.90
30300;DHT22;17110;52.602;12.998;2024-03-23T20:28:01;4.30;99.90
30300;DHT22;17110;52.602;12.998;2024-03-23T20:33:02;4.20;99.90
30300;DHT22;17110;52.602;12.998;2024-03-23T20:38:03;4.20;99.90
30300;DHT22;17110;52.602;12.998;2024-03-23T20:43:07;4.10;99.90
30300;DHT22;17110;52.602;12.998;2024-03-23T20:48:08;4.00;99.90
30300;DHT22;17110;52.602;12.998;2024-03-23T20:53:08;4.00;99.90
30300;DHT22;17110;52.602;12.998;2024-03-23T20:58:10;3.90;99.90
30300;DHT22;17110;52.602;12.998;2024-03-23T21:03:11;3.80;99.90
30300;DHT22;17110;52.602;12.998;2024-03-23T21:08:12;3.70;99.90
30300;DHT22;17110;52.602;12.998;2024-03-23T21:13:14;3.60;99.90
30300;DHT22;17110;52.602;12.998;2024-03-23T21:18:15;3.50;99.90
30300;DHT22;17110;52.602;12.998;2024-03-23T21:23:15;3.40;99.90
30300;DHT22;17110;52.602;12.998;2024-03-23T21:28:17;3.50;99.90
30300;DHT22;17110;52.602;12.998;2024-03-23T21:33:18;3.50;99.90
30300;DHT22;17110;52.602;12.998;2024-03-23T21:38:19;3.40;99.90
30300;DHT22;17110;52.602;12.998;2024-03-23T21:43:21;3.50;99.90
30300;DHT22;17110;52.602;12.998;2024-03-23T21:48:22;3.60;99.90
30300;DHT22;17110;52.602;12.998;2024-03-23T21:53:23;3.50;99.90
30300;DHT22;17110;52.602;12.998;2024-03-23T21:58:26;3.50;99.90
30300;DHT22;17110;52.602;12.998;2024-03-23T22:03:27;3.30;99.90
30300;DHT22;17110;52.602;12.998;2024-03-23T22:08:27;3.30;99.90
30300;DHT22;17110;52.602;12.998;2024-03-23T22:13:29;3.30;99.90
30300;DHT22;17110;52.602;12.998;2024-03-23T22:18:30;3.10;99.90
30300;DHT22;17110;52.602;12.998;2024-03-23T22:23:31;3.00;99.90
30300;DHT22;17110;52.602;12.998;2024-03-23T22:28:33;3.00;99.90
30300;DHT22;17110;52.602;12.998;2024-03-23T22:33:33;3.00;99.90
30300;DHT22;17110;52.602;12.998;2024-03-23T22:38:34;2.90;99.90
30300;DHT22;17110;52.602;12.998;2024-03-23T22:43:36;2.80;99.90
30300;DHT22;17110;52.602;12.998;2024-03-23T22:48:37;2.80;99.90
30300;DHT22;17110;52.602;12.998;2024-03-23T22:53:37;2.90;99.90
30300;DHT22;17110;52.602;12.998;2024-03-23T22:58:39;2.90;99.90
30300;DHT22;17110;52.602;12.998;2024-03-23T23:03:40;3.00;99.90
30300;DHT22;17110;52.602;12.998;2024-03-23T23:08:41;3.00;99.90
30300;DHT22;17110;52.602;12.998;2024-03-23T23:13:43;3.10;99.90
30300;DHT22;17110;52.602;12.998;2024-03-23T23:18:43;3.20;99.90
30300;DHT22;17110;52.602;12.998;2024-03-23T23:23:44;3.40;99.90
30300;DHT22;17110;52.602;12.998;2024-03-23T23:28:46;3.40;99.90
30300;DHT22;17110;52.602;12.998;2024-03-23T23:33:46;3.40;99.90
30300;DHT22;17110;52.602;12.998;2024-03-23T23:38:48;3.40;99.90
30300;DHT22;17110;52.602;12.998;2024-03-23T23:43:56;3.50;99.90
30300;DHT22;17110;52.602;12.998;2024-03-23T23:48:57;3.60;99.90
30300;DHT22;17110;52.602;12.998;2024-03-23T23:53:57;3.50;99.90
30300;DHT22;17110;52.602;12.998;2024-03-23T23:58:59;3.50;99.90
